Flugplatz Paderborn Lippstadt

Bericht für EDLP

vom 23.02. um 18:50 UTC

Wind 10 kt aus 140°

Sichtweite 10 km oder mehr

gute Sicht, keine Wolken < 5000 ft, keine CB, keine Wettererscheinungen (CAVOK)

Temperatur 6.0°C

Taupunkt -3.0°C

Luftfeuchtigkeit 52%

Luftdruck 1038 hPa

EDLP 231850Z 14010KT CAVOK 06/M03 Q1038

Prognose für EDLP

vom 23.02. um 17:00 UTC

Zwischen 18:00 UTC und 08:00 UTC

Wind 7 kt aus 130°

Sichtweite 10 km oder mehr

keine signifikanten Wettererscheinungen

keine Wolken


Am 24.02. zwischen 08:00 und 10:00 UTC übergehend zu

variable Windrichtung mit 3 kt

Sichtweite 10 km oder mehr

keine signifikanten Wettererscheinungen

keine Wolken

TAF EDLP 231700Z 2318/2418 13007KT CAVOK BECMG 2408/2410 VRB03KT
Impressum